sensor_id;sensor_type;location;lat;lon;timestamp;P1;durP1;ratioP1;P2;durP2;ratioP2
67456;SDS011;54319;52.038;4.640;2023-05-15T00:01:22;26.88;;;16.15;;
67456;SDS011;54319;52.038;4.640;2023-05-15T00:03:49;26.65;;;15.57;;
67456;SDS011;54319;52.038;4.640;2023-05-15T00:06:16;26.27;;;15.20;;
67456;SDS011;54319;52.038;4.640;2023-05-15T00:08:44;25.17;;;14.20;;
67456;SDS011;54319;52.038;4.640;2023-05-15T00:11:11;27.10;;;15.25;;
67456;SDS011;54319;52.038;4.640;2023-05-15T00:13:38;22.80;;;14.35;;
67456;SDS011;54319;52.038;4.640;2023-05-15T00:16:05;19.60;;;13.50;;
67456;SDS011;54319;52.038;4.640;2023-05-15T00:18:33;23.55;;;14.60;;
67456;SDS011;54319;52.038;4.640;2023-05-15T00:20:59;27.60;;;14.57;;
67456;SDS011;54319;52.038;4.640;2023-05-15T00:23:26;26.30;;;14.32;;
67456;SDS011;54319;52.038;4.640;2023-05-15T00:25:53;30.83;;;14.40;;
67456;SDS011;54319;52.038;4.640;2023-05-15T00:28:21;25.13;;;14.43;;
67456;SDS011;54319;52.038;4.640;2023-05-15T00:30:47;22.08;;;13.82;;
67456;SDS011;54319;52.038;4.640;2023-05-15T00:33:14;21.45;;;13.63;;
67456;SDS011;54319;52.038;4.640;2023-05-15T00:35:40;23.90;;;14.30;;
67456;SDS011;54319;52.038;4.640;2023-05-15T00:38:07;23.63;;;13.52;;
67456;SDS011;54319;52.038;4.640;2023-05-15T00:40:34;21.25;;;12.45;;
67456;SDS011;54319;52.038;4.640;2023-05-15T00:43:03;26.85;;;13.82;;
67456;SDS011;54319;52.038;4.640;2023-05-15T00:45:33;20.65;;;13.15;;
67456;SDS011;54319;52.038;4.640;2023-05-15T00:48:00;20.35;;;12.95;;
67456;SDS011;54319;52.038;4.640;2023-05-15T00:50:29;25.08;;;13.75;;
67456;SDS011;54319;52.038;4.640;2023-05-15T00:52:57;23.40;;;14.30;;
67456;SDS011;54319;52.038;4.640;2023-05-15T00:55:25;22.13;;;13.98;;
67456;SDS011;54319;52.038;4.640;2023-05-15T00:57:54;20.45;;;13.30;;
67456;SDS011;54319;52.038;4.640;2023-05-15T01:00:22;23.17;;;13.88;;
67456;SDS011;54319;52.038;4.640;2023-05-15T01:02:52;26.13;;;13.98;;
67456;SDS011;54319;52.038;4.640;2023-05-15T01:05:19;24.67;;;14.82;;
67456;SDS011;54319;52.038;4.640;2023-05-15T01:07:47;23.23;;;13.83;;
67456;SDS011;54319;52.038;4.640;2023-05-15T01:10:17;22.02;;;13.70;;
67456;SDS011;54319;52.038;4.640;2023-05-15T01:12:46;27.90;;;14.55;;
67456;SDS011;54319;52.038;4.640;2023-05-15T01:15:16;23.23;;;14.75;;
67456;SDS011;54319;52.038;4.640;2023-05-15T01:17:42;27.13;;;14.70;;
67456;SDS011;54319;52.038;4.640;2023-05-15T01:20:11;25.40;;;13.95;;
67456;SDS011;54319;52.038;4.640;2023-05-15T01:22:45;22.58;;;13.73;;
67456;SDS011;54319;52.038;4.640;2023-05-15T01:28:13;26.13;;;14.23;;
67456;SDS011;54319;52.038;4.640;2023-05-15T01:30:47;24.00;;;14.15;;
67456;SDS011;54319;52.038;4.640;2023-05-15T01:33:17;23.23;;;13.95;;
67456;SDS011;54319;52.038;4.640;2023-05-15T01:35:47;23.30;;;13.38;;
67456;SDS011;54319;52.038;4.640;2023-05-15T01:38:18;22.80;;;13.88;;
67456;SDS011;54319;52.038;4.640;2023-05-15T01:40:54;25.92;;;14.23;;
67456;SDS011;54319;52.038;4.640;2023-05-15T01:43:27;22.50;;;13.88;;
67456;SDS011;54319;52.038;4.640;2023-05-15T01:45:56;21.75;;;14.55;;
67456;SDS011;54319;52.038;4.640;2023-05-15T01:50:50;25.60;;;14.65;;
67456;SDS011;54319;52.038;4.640;2023-05-15T01:53:21;21.75;;;14.65;;
67456;SDS011;54319;52.038;4.640;2023-05-15T01:55:48;28.10;;;14.77;;
67456;SDS011;54319;52.038;4.640;2023-05-15T01:58:16;24.48;;;15.02;;
67456;SDS011;54319;52.038;4.640;2023-05-15T02:00:45;26.08;;;15.68;;
67456;SDS011;54319;52.038;4.640;2023-05-15T02:03:13;24.98;;;15.48;;
67456;SDS011;54319;52.038;4.640;2023-05-15T02:05:40;27.08;;;15.65;;
67456;SDS011;54319;52.038;4.640;2023-05-15T02:08:08;25.50;;;15.02;;
67456;SDS011;54319;52.038;4.640;2023-05-15T02:10:36;25.25;;;15.27;;
67456;SDS011;54319;52.038;4.640;2023-05-15T02:15:31;27.08;;;15.50;;
67456;SDS011;54319;52.038;4.640;2023-05-15T02:17:59;28.17;;;16.05;;
67456;SDS011;54319;52.038;4.640;2023-05-15T02:20:26;28.73;;;16.17;;
67456;SDS011;54319;52.038;4.640;2023-05-15T02:22:53;31.60;;;16.02;;
67456;SDS011;54319;52.038;4.640;2023-05-15T02:25:19;34.38;;;19.10;;
67456;SDS011;54319;52.038;4.640;2023-05-15T02:27:58;34.03;;;19.08;;
67456;SDS011;54319;52.038;4.640;2023-05-15T02:30:27;38.83;;;19.23;;
67456;SDS011;54319;52.038;4.640;2023-05-15T02:33:04;37.22;;;20.50;;
67456;SDS011;54319;52.038;4.640;2023-05-15T02:35:40;35.88;;;20.27;;
67456;SDS011;54319;52.038;4.640;2023-05-15T02:38:14;42.20;;;22.55;;
67456;SDS011;54319;52.038;4.640;2023-05-15T02:40:43;43.42;;;21.77;;
67456;SDS011;54319;52.038;4.640;2023-05-15T02:43:10;45.22;;;22.00;;
67456;SDS011;54319;52.038;4.640;2023-05-15T02:45:39;37.90;;;20.92;;
67456;SDS011;54319;52.038;4.640;2023-05-15T02:48:08;43.25;;;21.48;;
67456;SDS011;54319;52.038;4.640;2023-05-15T02:50:35;34.95;;;20.92;;
67456;SDS011;54319;52.038;4.640;2023-05-15T02:53:02;38.97;;;21.67;;
67456;SDS011;54319;52.038;4.640;2023-05-15T02:55:29;38.10;;;22.25;;
67456;SDS011;54319;52.038;4.640;2023-05-15T02:57:56;38.08;;;22.20;;
67456;SDS011;54319;52.038;4.640;2023-05-15T03:00:23;37.05;;;20.90;;
67456;SDS011;54319;52.038;4.640;2023-05-15T03:02:49;36.40;;;21.40;;
67456;SDS011;54319;52.038;4.640;2023-05-15T03:05:18;39.13;;;21.70;;
67456;SDS011;54319;52.038;4.640;2023-05-15T03:07:45;41.42;;;21.02;;
67456;SDS011;54319;52.038;4.640;2023-05-15T03:10:12;36.88;;;21.10;;
67456;SDS011;54319;52.038;4.640;2023-05-15T03:12:38;41.00;;;22.45;;
67456;SDS011;54319;52.038;4.640;2023-05-15T03:15:05;44.80;;;21.92;;
67456;SDS011;54319;52.038;4.640;2023-05-15T03:17:32;35.17;;;21.13;;
67456;SDS011;54319;52.038;4.640;2023-05-15T03:19:59;43.38;;;22.50;;
67456;SDS011;54319;52.038;4.640;2023-05-15T03:22:27;41.33;;;20.98;;
67456;SDS011;54319;52.038;4.640;2023-05-15T03:24:53;39.75;;;21.70;;
67456;SDS011;54319;52.038;4.640;2023-05-15T03:27:20;39.30;;;20.90;;
67456;SDS011;54319;52.038;4.640;2023-05-15T03:29:46;38.67;;;20.48;;
67456;SDS011;54319;52.038;4.640;2023-05-15T03:32:15;39.30;;;20.90;;
67456;SDS011;54319;52.038;4.640;2023-05-15T03:34:41;35.47;;;20.87;;
67456;SDS011;54319;52.038;4.640;2023-05-15T03:37:08;40.43;;;20.80;;
67456;SDS011;54319;52.038;4.640;2023-05-15T03:39:36;38.15;;;20.77;;
67456;SDS011;54319;52.038;4.640;2023-05-15T03:42:03;41.88;;;20.42;;
67456;SDS011;54319;52.038;4.640;2023-05-15T03:44:30;35.33;;;19.95;;
67456;SDS011;54319;52.038;4.640;2023-05-15T03:46:57;36.42;;;19.00;;
67456;SDS011;54319;52.038;4.640;2023-05-15T03:49:23;37.95;;;19.75;;
67456;SDS011;54319;52.038;4.640;2023-05-15T03:51:50;36.22;;;18.73;;
67456;SDS011;54319;52.038;4.640;2023-05-15T03:54:17;39.38;;;19.27;;
67456;SDS011;54319;52.038;4.640;2023-05-15T03:56:45;38.10;;;19.40;;
67456;SDS011;54319;52.038;4.640;2023-05-15T03:59:12;33.58;;;19.65;;
67456;SDS011;54319;52.038;4.640;2023-05-15T04:01:38;39.00;;;21.80;;
67456;SDS011;54319;52.038;4.640;2023-05-15T04:04:05;39.22;;;20.58;;
67456;SDS011;54319;52.038;4.640;2023-05-15T04:06:32;41.58;;;22.38;;
67456;SDS011;54319;52.038;4.640;2023-05-15T04:08:58;42.30;;;22.25;;
67456;SDS011;54319;52.038;4.640;2023-05-15T04:11:25;43.03;;;24.13;;
67456;SDS011;54319;52.038;4.640;2023-05-15T04:13:54;47.08;;;24.98;;
67456;SDS011;54319;52.038;4.640;2023-05-15T04:16:20;44.75;;;24.13;;
67456;SDS011;54319;52.038;4.640;2023-05-15T04:18:47;44.80;;;24.35;;
67456;SDS011;54319;52.038;4.640;2023-05-15T04:21:13;41.08;;;23.40;;
67456;SDS011;54319;52.038;4.640;2023-05-15T04:23:40;42.42;;;24.85;;
67456;SDS011;54319;52.038;4.640;2023-05-15T04:26:07;45.08;;;24.63;;
67456;SDS011;54319;52.038;4.640;2023-05-15T04:28:34;45.58;;;23.98;;
67456;SDS011;54319;52.038;4.640;2023-05-15T04:31:02;44.15;;;23.77;;
67456;SDS011;54319;52.038;4.640;2023-05-15T04:33:29;39.17;;;21.65;;
67456;SDS011;54319;52.038;4.640;2023-05-15T04:35:55;41.17;;;24.88;;
67456;SDS011;54319;52.038;4.640;2023-05-15T04:38:22;37.05;;;22.27;;
67456;SDS011;54319;52.038;4.640;2023-05-15T04:40:48;40.83;;;23.48;;
67456;SDS011;54319;52.038;4.640;2023-05-15T04:43:15;36.75;;;21.95;;
67456;SDS011;54319;52.038;4.640;2023-05-15T04:45:42;35.28;;;22.48;;
67456;SDS011;54319;52.038;4.640;2023-05-15T04:48:10;34.42;;;21.08;;
67456;SDS011;54319;52.038;4.640;2023-05-15T04:50:36;34.60;;;20.42;;
67456;SDS011;54319;52.038;4.640;2023-05-15T04:53:03;27.80;;;18.48;;
67456;SDS011;54319;52.038;4.640;2023-05-15T04:55:30;32.03;;;18.95;;
67456;SDS011;54319;52.038;4.640;2023-05-15T04:57:57;26.60;;;17.95;;
67456;SDS011;54319;52.038;4.640;2023-05-15T05:00:23;24.77;;;16.20;;
67456;SDS011;54319;52.038;4.640;2023-05-15T05:02:51;23.40;;;15.75;;
67456;SDS011;54319;52.038;4.640;2023-05-15T05:05:19;25.83;;;16.30;;
67456;SDS011;54319;52.038;4.640;2023-05-15T05:07:46;21.55;;;15.30;;
67456;SDS011;54319;52.038;4.640;2023-05-15T05:10:15;26.30;;;15.85;;
67456;SDS011;54319;52.038;4.640;2023-05-15T05:12:42;24.57;;;15.07;;
67456;SDS011;54319;52.038;4.640;2023-05-15T05:15:09;32.17;;;16.50;;
67456;SDS011;54319;52.038;4.640;2023-05-15T05:17:36;22.88;;;15.15;;
67456;SDS011;54319;52.038;4.640;2023-05-15T05:20:02;26.15;;;15.57;;
67456;SDS011;54319;52.038;4.640;2023-05-15T05:22:34;23.30;;;15.30;;
67456;SDS011;54319;52.038;4.640;2023-05-15T05:25:00;21.65;;;14.43;;
67456;SDS011;54319;52.038;4.640;2023-05-15T05:27:30;25.38;;;14.77;;
67456;SDS011;54319;52.038;4.640;2023-05-15T05:29:57;21.60;;;15.05;;
67456;SDS011;54319;52.038;4.640;2023-05-15T05:32:24;23.27;;;14.90;;
67456;SDS011;54319;52.038;4.640;2023-05-15T05:34:51;21.13;;;14.23;;
67456;SDS011;54319;52.038;4.640;2023-05-15T05:37:17;20.40;;;14.50;;
67456;SDS011;54319;52.038;4.640;2023-05-15T05:39:45;19.77;;;14.00;;
67456;SDS011;54319;52.038;4.640;2023-05-15T05:42:12;20.85;;;13.98;;
67456;SDS011;54319;52.038;4.640;2023-05-15T05:44:39;22.23;;;14.35;;
67456;SDS011;54319;52.038;4.640;2023-05-15T05:47:05;24.35;;;14.85;;
67456;SDS011;54319;52.038;4.640;2023-05-15T05:49:32;22.23;;;14.90;;
67456;SDS011;54319;52.038;4.640;2023-05-15T05:52:03;26.50;;;15.37;;
67456;SDS011;54319;52.038;4.640;2023-05-15T05:54:31;23.80;;;16.35;;
67456;SDS011;54319;52.038;4.640;2023-05-15T05:56:59;29.55;;;16.20;;
67456;SDS011;54319;52.038;4.640;2023-05-15T05:59:26;27.40;;;16.50;;
67456;SDS011;54319;52.038;4.640;2023-05-15T06:01:53;23.25;;;15.57;;
67456;SDS011;54319;52.038;4.640;2023-05-15T06:04:19;22.23;;;15.60;;
67456;SDS011;54319;52.038;4.640;2023-05-15T06:06:46;21.83;;;14.40;;
67456;SDS011;54319;52.038;4.640;2023-05-15T06:11:40;20.38;;;14.88;;
67456;SDS011;54319;52.038;4.640;2023-05-15T06:14:08;20.73;;;13.63;;
67456;SDS011;54319;52.038;4.640;2023-05-15T06:16:35;26.10;;;16.83;;
67456;SDS011;54319;52.038;4.640;2023-05-15T06:19:01;25.10;;;15.70;;
67456;SDS011;54319;52.038;4.640;2023-05-15T06:21:28;21.70;;;15.65;;
67456;SDS011;54319;52.038;4.640;2023-05-15T06:23:55;24.30;;;16.30;;
67456;SDS011;54319;52.038;4.640;2023-05-15T06:26:21;27.90;;;16.13;;
67456;SDS011;54319;52.038;4.640;2023-05-15T06:28:49;27.33;;;16.73;;
67456;SDS011;54319;52.038;4.640;2023-05-15T06:31:17;24.33;;;16.35;;
67456;SDS011;54319;52.038;4.640;2023-05-15T06:33:44;27.60;;;16.23;;
67456;SDS011;54319;52.038;4.640;2023-05-15T06:36:10;25.38;;;16.45;;
67456;SDS011;54319;52.038;4.640;2023-05-15T06:38:37;28.17;;;16.60;;
67456;SDS011;54319;52.038;4.640;2023-05-15T06:41:04;26.07;;;16.83;;
67456;SDS011;54319;52.038;4.640;2023-05-15T06:43:30;27.85;;;17.20;;
67456;SDS011;54319;52.038;4.640;2023-05-15T06:45:57;28.00;;;17.47;;
67456;SDS011;54319;52.038;4.640;2023-05-15T06:48:25;25.00;;;16.57;;
67456;SDS011;54319;52.038;4.640;2023-05-15T06:50:51;29.13;;;16.90;;
67456;SDS011;54319;52.038;4.640;2023-05-15T06:53:18;31.80;;;16.85;;
67456;SDS011;54319;52.038;4.640;2023-05-15T06:55:45;26.00;;;15.35;;
67456;SDS011;54319;52.038;4.640;2023-05-15T06:58:12;22.80;;;15.75;;
67456;SDS011;54319;52.038;4.640;2023-05-15T07:00:39;23.97;;;15.87;;
67456;SDS011;54319;52.038;4.640;2023-05-15T07:03:05;23.37;;;15.60;;
67456;SDS011;54319;52.038;4.640;2023-05-15T07:05:33;26.10;;;17.70;;
67456;SDS011;54319;52.038;4.640;2023-05-15T07:08:00;25.35;;;16.48;;
67456;SDS011;54319;52.038;4.640;2023-05-15T07:10:26;26.00;;;16.90;;
67456;SDS011;54319;52.038;4.640;2023-05-15T07:12:53;24.42;;;16.00;;
67456;SDS011;54319;52.038;4.640;2023-05-15T07:15:19;28.17;;;16.63;;
67456;SDS011;54319;52.038;4.640;2023-05-15T07:17:46;23.93;;;16.10;;
67456;SDS011;54319;52.038;4.640;2023-05-15T07:20:13;24.13;;;15.30;;
67456;SDS011;54319;52.038;4.640;2023-05-15T07:22:41;21.40;;;15.23;;
67456;SDS011;54319;52.038;4.640;2023-05-15T07:25:08;25.02;;;15.57;;
67456;SDS011;54319;52.038;4.640;2023-05-15T07:27:35;23.98;;;15.35;;
67456;SDS011;54319;52.038;4.640;2023-05-15T07:30:02;26.20;;;16.10;;
67456;SDS011;54319;52.038;4.640;2023-05-15T07:32:30;26.95;;;14.73;;
67456;SDS011;54319;52.038;4.640;2023-05-15T07:37:24;21.65;;;13.60;;
67456;SDS011;54319;52.038;4.640;2023-05-15T07:39:52;20.53;;;14.20;;
67456;SDS011;54319;52.038;4.640;2023-05-15T07:42:20;22.50;;;14.30;;
67456;SDS011;54319;52.038;4.640;2023-05-15T07:44:47;20.63;;;13.30;;
67456;SDS011;54319;52.038;4.640;2023-05-15T07:47:13;20.55;;;12.88;;
67456;SDS011;54319;52.038;4.640;2023-05-15T07:49:40;19.63;;;14.03;;
67456;SDS011;54319;52.038;4.640;2023-05-15T07:52:07;24.10;;;14.68;;
67456;SDS011;54319;52.038;4.640;2023-05-15T07:54:33;27.37;;;15.27;;
67456;SDS011;54319;52.038;4.640;2023-05-15T07:57:01;29.42;;;15.25;;
67456;SDS011;54319;52.038;4.640;2023-05-15T07:59:28;25.23;;;15.48;;
67456;SDS011;54319;52.038;4.640;2023-05-15T08:01:55;23.83;;;15.05;;
67456;SDS011;54319;52.038;4.640;2023-05-15T08:04:22;21.58;;;14.65;;
67456;SDS011;54319;52.038;4.640;2023-05-15T08:06:49;22.13;;;15.53;;
67456;SDS011;54319;52.038;4.640;2023-05-15T08:09:15;22.60;;;15.82;;
67456;SDS011;54319;52.038;4.640;2023-05-15T08:11:42;23.67;;;15.90;;
67456;SDS011;54319;52.038;4.640;2023-05-15T08:14:10;24.52;;;16.35;;
67456;SDS011;54319;52.038;4.640;2023-05-15T08:16:37;24.65;;;16.05;;
67456;SDS011;54319;52.038;4.640;2023-05-15T08:19:04;24.90;;;15.60;;
67456;SDS011;54319;52.038;4.640;2023-05-15T08:21:31;23.23;;;15.43;;
67456;SDS011;54319;52.038;4.640;2023-05-15T08:23:59;27.42;;;16.92;;
67456;SDS011;54319;52.038;4.640;2023-05-15T08:26:25;29.55;;;18.35;;
67456;SDS011;54319;52.038;4.640;2023-05-15T08:28:52;30.38;;;18.00;;
67456;SDS011;54319;52.038;4.640;2023-05-15T08:31:20;26.93;;;17.50;;
67456;SDS011;54319;52.038;4.640;2023-05-15T08:33:47;26.52;;;17.70;;
67456;SDS011;54319;52.038;4.640;2023-05-15T08:36:13;28.57;;;18.73;;
67456;SDS011;54319;52.038;4.640;2023-05-15T08:38:42;32.15;;;18.75;;
67456;SDS011;54319;52.038;4.640;2023-05-15T08:41:10;30.75;;;18.55;;
67456;SDS011;54319;52.038;4.640;2023-05-15T08:43:42;30.98;;;19.35;;
67456;SDS011;54319;52.038;4.640;2023-05-15T08:48:37;30.55;;;18.38;;
67456;SDS011;54319;52.038;4.640;2023-05-15T08:51:07;31.05;;;18.92;;
67456;SDS011;54319;52.038;4.640;2023-05-15T08:53:35;34.80;;;19.70;;
67456;SDS011;54319;52.038;4.640;2023-05-15T08:56:02;35.63;;;19.75;;
67456;SDS011;54319;52.038;4.640;2023-05-15T08:58:30;31.88;;;19.10;;
67456;SDS011;54319;52.038;4.640;2023-05-15T09:03:24;40.15;;;20.25;;
67456;SDS011;54319;52.038;4.640;2023-05-15T09:05:52;37.78;;;20.48;;
67456;SDS011;54319;52.038;4.640;2023-05-15T09:08:21;37.05;;;21.95;;
67456;SDS011;54319;52.038;4.640;2023-05-15T09:10:48;41.00;;;22.52;;
67456;SDS011;54319;52.038;4.640;2023-05-15T09:13:16;40.10;;;22.42;;
67456;SDS011;54319;52.038;4.640;2023-05-15T09:15:44;41.47;;;22.85;;
67456;SDS011;54319;52.038;4.640;2023-05-15T09:20:37;42.22;;;22.63;;
67456;SDS011;54319;52.038;4.640;2023-05-15T09:23:08;46.17;;;23.33;;
67456;SDS011;54319;52.038;4.640;2023-05-15T09:25:48;45.72;;;23.67;;
67456;SDS011;54319;52.038;4.640;2023-05-15T09:28:23;40.97;;;21.65;;
67456;SDS011;54319;52.038;4.640;2023-05-15T09:30:55;40.30;;;21.85;;
67456;SDS011;54319;52.038;4.640;2023-05-15T09:33:27;42.92;;;23.08;;
67456;SDS011;54319;52.038;4.640;2023-05-15T09:35:56;49.78;;;24.80;;
67456;SDS011;54319;52.038;4.640;2023-05-15T09:38:24;46.55;;;24.38;;
67456;SDS011;54319;52.038;4.640;2023-05-15T09:40:51;42.65;;;22.35;;
67456;SDS011;54319;52.038;4.640;2023-05-15T09:43:27;43.35;;;22.08;;
67456;SDS011;54319;52.038;4.640;2023-05-15T09:45:54;37.05;;;20.52;;
67456;SDS011;54319;52.038;4.640;2023-05-15T09:48:21;34.90;;;19.25;;
67456;SDS011;54319;52.038;4.640;2023-05-15T09:50:47;36.08;;;20.02;;
67456;SDS011;54319;52.038;4.640;2023-05-15T09:53:14;36.70;;;19.92;;
67456;SDS011;54319;52.038;4.640;2023-05-15T09:55:42;33.22;;;17.83;;
67456;SDS011;54319;52.038;4.640;2023-05-15T09:58:10;31.63;;;18.52;;
67456;SDS011;54319;52.038;4.640;2023-05-15T10:00:37;38.88;;;20.00;;
67456;SDS011;54319;52.038;4.640;2023-05-15T10:03:06;30.08;;;17.73;;
67456;SDS011;54319;52.038;4.640;2023-05-15T10:05:34;29.38;;;17.30;;
67456;SDS011;54319;52.038;4.640;2023-05-15T10:08:01;28.65;;;15.95;;
67456;SDS011;54319;52.038;4.640;2023-05-15T10:10:28;24.70;;;15.90;;
67456;SDS011;54319;52.038;4.640;2023-05-15T10:12:57;24.88;;;14.70;;
67456;SDS011;54319;52.038;4.640;2023-05-15T10:15:27;21.75;;;14.57;;
67456;SDS011;54319;52.038;4.640;2023-05-15T10:17:54;25.98;;;14.73;;
67456;SDS011;54319;52.038;4.640;2023-05-15T10:20:22;25.08;;;14.88;;
67456;SDS011;54319;52.038;4.640;2023-05-15T10:22:50;22.25;;;13.95;;
67456;SDS011;54319;52.038;4.640;2023-05-15T10:25:20;24.83;;;15.85;;
67456;SDS011;54319;52.038;4.640;2023-05-15T10:27:52;20.90;;;14.30;;
67456;SDS011;54319;52.038;4.640;2023-05-15T10:30:21;19.58;;;13.25;;
67456;SDS011;54319;52.038;4.640;2023-05-15T10:32:49;20.02;;;13.60;;
67456;SDS011;54319;52.038;4.640;2023-05-15T10:35:16;22.77;;;14.52;;
67456;SDS011;54319;52.038;4.640;2023-05-15T10:37:44;26.60;;;14.55;;
67456;SDS011;54319;52.038;4.640;2023-05-15T10:40:13;16.60;;;11.45;;
67456;SDS011;54319;52.038;4.640;2023-05-15T10:42:41;17.70;;;11.68;;
67456;SDS011;54319;52.038;4.640;2023-05-15T10:45:09;14.68;;;9.95;;
67456;SDS011;54319;52.038;4.640;2023-05-15T10:47:38;16.65;;;10.20;;
67456;SDS011;54319;52.038;4.640;2023-05-15T10:50:06;16.48;;;9.90;;
67456;SDS011;54319;52.038;4.640;2023-05-15T10:52:34;13.85;;;8.30;;
67456;SDS011;54319;52.038;4.640;2023-05-15T10:55:04;12.07;;;8.32;;
67456;SDS011;54319;52.038;4.640;2023-05-15T10:57:32;12.90;;;8.32;;
67456;SDS011;54319;52.038;4.640;2023-05-15T10:59:59;10.73;;;7.15;;
67456;SDS011;54319;52.038;4.640;2023-05-15T11:02:27;11.77;;;8.25;;
67456;SDS011;54319;52.038;4.640;2023-05-15T11:04:57;12.52;;;8.50;;
67456;SDS011;54319;52.038;4.640;2023-05-15T11:07:24;12.73;;;7.95;;
67456;SDS011;54319;52.038;4.640;2023-05-15T11:09:51;11.70;;;7.10;;
67456;SDS011;54319;52.038;4.640;2023-05-15T11:12:19;10.88;;;7.00;;
67456;SDS011;54319;52.038;4.640;2023-05-15T11:18:00;9.85;;;4.90;;
67456;SDS011;54319;52.038;4.640;2023-05-15T11:20:36;6.72;;;3.92;;
67456;SDS011;54319;52.038;4.640;2023-05-15T11:23:04;10.07;;;4.20;;
67456;SDS011;54319;52.038;4.640;2023-05-15T11:25:31;8.88;;;4.50;;
67456;SDS011;54319;52.038;4.640;2023-05-15T11:27:59;6.13;;;4.13;;
67456;SDS011;54319;52.038;4.640;2023-05-15T11:30:35;5.47;;;3.83;;
67456;SDS011;54319;52.038;4.640;2023-05-15T11:33:04;6.43;;;3.53;;
67456;SDS011;54319;52.038;4.640;2023-05-15T11:35:35;6.32;;;3.90;;
67456;SDS011;54319;52.038;4.640;2023-05-15T11:38:04;9.48;;;4.45;;
67456;SDS011;54319;52.038;4.640;2023-05-15T11:40:47;10.02;;;4.72;;
67456;SDS011;54319;52.038;4.640;2023-05-15T11:43:17;12.70;;;5.30;;
67456;SDS011;54319;52.038;4.640;2023-05-15T11:45:45;12.63;;;5.85;;
67456;SDS011;54319;52.038;4.640;2023-05-15T11:48:15;12.10;;;5.88;;
67456;SDS011;54319;52.038;4.640;2023-05-15T11:50:44;15.10;;;5.57;;
67456;SDS011;54319;52.038;4.640;2023-05-15T11:53:11;10.98;;;5.00;;
67456;SDS011;54319;52.038;4.640;2023-05-15T11:55:39;10.85;;;4.68;;
67456;SDS011;54319;52.038;4.640;2023-05-15T11:58:09;12.90;;;5.30;;
67456;SDS011;54319;52.038;4.640;2023-05-15T12:00:37;10.95;;;4.63;;
67456;SDS011;54319;52.038;4.640;2023-05-15T12:03:04;12.97;;;5.27;;
67456;SDS011;54319;52.038;4.640;2023-05-15T12:05:30;9.30;;;4.93;;
67456;SDS011;54319;52.038;4.640;2023-05-15T12:07:58;7.97;;;4.18;;
67456;SDS011;54319;52.038;4.640;2023-05-15T12:10:26;11.93;;;4.50;;
67456;SDS011;54319;52.038;4.640;2023-05-15T12:12:53;8.82;;;3.95;;
67456;SDS011;54319;52.038;4.640;2023-05-15T12:15:19;7.80;;;3.37;;
67456;SDS011;54319;52.038;4.640;2023-05-15T12:17:46;7.27;;;3.80;;
67456;SDS011;54319;52.038;4.640;2023-05-15T12:20:15;7.27;;;3.77;;
67456;SDS011;54319;52.038;4.640;2023-05-15T12:22:42;9.40;;;3.13;;
67456;SDS011;54319;52.038;4.640;2023-05-15T12:25:11;13.18;;;4.13;;
67456;SDS011;54319;52.038;4.640;2023-05-15T12:27:41;10.90;;;3.67;;
67456;SDS011;54319;52.038;4.640;2023-05-15T12:30:09;11.85;;;3.50;;
67456;SDS011;54319;52.038;4.640;2023-05-15T12:32:36;11.88;;;3.92;;
67456;SDS011;54319;52.038;4.640;2023-05-15T12:35:04;11.80;;;3.65;;
67456;SDS011;54319;52.038;4.640;2023-05-15T12:37:32;7.18;;;3.17;;
67456;SDS011;54319;52.038;4.640;2023-05-15T12:40:01;13.60;;;3.13;;
67456;SDS011;54319;52.038;4.640;2023-05-15T12:42:38;11.98;;;3.22;;
67456;SDS011;54319;52.038;4.640;2023-05-15T12:45:13;12.38;;;2.85;;
67456;SDS011;54319;52.038;4.640;2023-05-15T12:47:41;9.05;;;2.53;;
67456;SDS011;54319;52.038;4.640;2023-05-15T12:50:12;6.97;;;2.80;;
67456;SDS011;54319;52.038;4.640;2023-05-15T12:52:40;6.15;;;2.40;;
67456;SDS011;54319;52.038;4.640;2023-05-15T12:55:14;4.45;;;2.17;;
67456;SDS011;54319;52.038;4.640;2023-05-15T12:57:43;10.73;;;2.83;;
67456;SDS011;54319;52.038;4.640;2023-05-15T13:00:10;9.93;;;3.15;;
67456;SDS011;54319;52.038;4.640;2023-05-15T13:02:38;10.60;;;3.00;;
67456;SDS011;54319;52.038;4.640;2023-05-15T13:05:08;6.88;;;2.50;;
67456;SDS011;54319;52.038;4.640;2023-05-15T13:07:35;11.18;;;2.80;;
67456;SDS011;54319;52.038;4.640;2023-05-15T13:10:03;8.55;;;2.83;;
67456;SDS011;54319;52.038;4.640;2023-05-15T13:12:34;6.70;;;2.78;;
67456;SDS011;54319;52.038;4.640;2023-05-15T13:15:03;8.30;;;3.20;;
67456;SDS011;54319;52.038;4.640;2023-05-15T13:17:31;11.52;;;3.33;;
67456;SDS011;54319;52.038;4.640;2023-05-15T13:19:59;7.53;;;2.83;;
67456;SDS011;54319;52.038;4.640;2023-05-15T13:22:25;7.10;;;2.63;;
67456;SDS011;54319;52.038;4.640;2023-05-15T13:24:52;7.82;;;2.88;;
67456;SDS011;54319;52.038;4.640;2023-05-15T13:27:20;4.70;;;2.50;;
67456;SDS011;54319;52.038;4.640;2023-05-15T13:29:48;11.88;;;2.78;;
67456;SDS011;54319;52.038;4.640;2023-05-15T13:32:16;8.10;;;2.60;;
67456;SDS011;54319;52.038;4.640;2023-05-15T13:34:43;8.32;;;2.60;;
67456;SDS011;54319;52.038;4.640;2023-05-15T13:37:09;6.63;;;2.70;;
67456;SDS011;54319;52.038;4.640;2023-05-15T13:39:36;4.60;;;2.57;;
67456;SDS011;54319;52.038;4.640;2023-05-15T13:42:03;4.33;;;2.10;;
67456;SDS011;54319;52.038;4.640;2023-05-15T13:44:30;3.97;;;2.15;;
67456;SDS011;54319;52.038;4.640;2023-05-15T13:46:57;3.72;;;2.10;;
67456;SDS011;54319;52.038;4.640;2023-05-15T13:49:29;3.75;;;2.20;;
67456;SDS011;54319;52.038;4.640;2023-05-15T13:51:56;3.65;;;2.30;;
67456;SDS011;54319;52.038;4.640;2023-05-15T13:54:23;2.67;;;2.10;;
67456;SDS011;54319;52.038;4.640;2023-05-15T13:56:50;2.63;;;1.97;;
67456;SDS011;54319;52.038;4.640;2023-05-15T13:59:16;4.80;;;2.27;;
67456;SDS011;54319;52.038;4.640;2023-05-15T14:01:43;5.25;;;2.03;;
67456;SDS011;54319;52.038;4.640;2023-05-15T14:04:10;5.72;;;2.17;;
67456;SDS011;54319;52.038;4.640;2023-05-15T14:06:38;3.80;;;2.30;;
67456;SDS011;54319;52.038;4.640;2023-05-15T14:09:05;2.67;;;1.65;;
67456;SDS011;54319;52.038;4.640;2023-05-15T14:11:32;3.25;;;1.88;;
67456;SDS011;54319;52.038;4.640;2023-05-15T14:13:59;6.50;;;2.05;;
67456;SDS011;54319;52.038;4.640;2023-05-15T14:16:25;2.50;;;1.77;;
67456;SDS011;54319;52.038;4.640;2023-05-15T14:18:52;6.53;;;2.20;;
67456;SDS011;54319;52.038;4.640;2023-05-15T14:21:19;7.53;;;2.20;;
67456;SDS011;54319;52.038;4.640;2023-05-15T14:23:47;5.10;;;2.03;;
67456;SDS011;54319;52.038;4.640;2023-05-15T14:26:13;6.20;;;2.15;;
67456;SDS011;54319;52.038;4.640;2023-05-15T14:28:40;7.88;;;2.47;;
67456;SDS011;54319;52.038;4.640;2023-05-15T14:31:07;9.65;;;2.30;;
67456;SDS011;54319;52.038;4.640;2023-05-15T14:33:33;7.60;;;2.70;;
67456;SDS011;54319;52.038;4.640;2023-05-15T14:36:00;5.67;;;2.30;;
67456;SDS011;54319;52.038;4.640;2023-05-15T14:38:28;7.70;;;2.53;;
67456;SDS011;54319;52.038;4.640;2023-05-15T14:40:56;5.07;;;2.25;;
67456;SDS011;54319;52.038;4.640;2023-05-15T14:43:23;4.07;;;2.05;;
67456;SDS011;54319;52.038;4.640;2023-05-15T14:45:50;9.50;;;2.40;;
67456;SDS011;54319;52.038;4.640;2023-05-15T14:48:16;5.70;;;2.63;;
67456;SDS011;54319;52.038;4.640;2023-05-15T14:50:44;5.70;;;2.25;;
67456;SDS011;54319;52.038;4.640;2023-05-15T14:53:11;11.27;;;2.72;;
67456;SDS011;54319;52.038;4.640;2023-05-15T14:55:38;10.35;;;2.85;;